Terminal Aerodrome Forecast
Issued by NWS

Home | Current Version | Previous Version | Text Only | Print | Product List | Glossary On
Versions: 1 2 3 4 5 6 7 8 9 10 11 12 13 14 15 16 17
000
FTUS43 KIWX 250642 AAA
TAFSBN
TAF AMD
KSBN 250642Z 2507/2606 14015KT 5SM -RA OVC005 WS020/19045KT
      TEMPO 2507/2508 3SM -SHRA BR OVC008
     FM250800 25020G39KT P6SM VCSH BKN008
     FM251100 25020G32KT P6SM BKN015
     FM251400 25019G27KT P6SM SCT020
     FM251900 24016G25KT P6SM FEW030
     FM260200 23009KT P6SM FEW250=

USA.gov is the U.S. government's official web portal to all federal, state and local government web resources and services.